首页
METAR-TAF:

METAR-TAF

机场 :

倫敦希斯路機場, 英格兰

纬度: 51-29N, 经度: 000-27W, 海拔: 24米

当前天气观测

该预报发布于17分钟前的10:50 UTC
风速7节,风向北转西北,在西北转东北之间变化
温度 18°C
湿度 56%
气压 1013 hPa
能见度10公里或以上
少量云层高于3600英尺
散云层高于4400英尺

METAR: EGLL 201050Z AUTO 33007KT 280V020 9999 FEW036 SCT044 18/09 Q1013

时间: 12:07 (11:07 UTC)

预报

该预报发布于5小时和16分钟前的05:51 UTC
预报有效从20日的 06点(UTC)到 21日的 12点(UTC)
风速4节,风向西北
能见度10公里或以上
散云层高于3000英尺
短暂存在
从 20日的 06点(UTC)到 20日的 08点(UTC)
能見度: 7000
几率 30% :
短暂存在
从 20日的 06点(UTC)到 20日的 07点(UTC)
能見度: 4000
轻雾
几率 40% :
短暂存在
从 20日的 12点(UTC)到 20日的 20点(UTC)
能見度: 6000
阵雨
几率 30%
从 21日的 04点(UTC)到 21日的 07点(UTC)
能見度: 8000

TAF: EGLL 200551Z 2006/2112 32004KT 9999 SCT030 TEMPO 2006/2008 7000 PROB30 TEMPO 2006/2007 4000 BR PROB40 TEMPO 2012/2020 6000 SHRA PROB30 2104/2107 8000

超过4000个机场的气象观测和天气预报(METAR&TAF报告)。

可查询的气象台以黄色和红色小点在地图上表示。

将鼠标移到小点上方,可查看气象台名称。

然后点击查看天气观测和预报。

如需切换地图:点击带黑十字的绿色按钮放大地图;点击带横线的绿色按钮缩小地图;或者点击绿色箭头查看邻近地区的地图。


METAR-TAF: